sensor_id;sensor_type;location;lat;lon;timestamp;pressure;altitude;pressure_sealevel;temperature;humidity
66398;BME280;54877;51.504;3.894;2023-05-20T00:00:55;102509.84;;;16.65;57.65
66398;BME280;54877;51.504;3.894;2023-05-20T00:03:20;102508.03;;;16.66;57.44
66398;BME280;54877;51.504;3.894;2023-05-20T00:05:46;102516.94;;;16.66;56.92
66398;BME280;54877;51.504;3.894;2023-05-20T00:08:11;102513.75;;;16.58;56.84
66398;BME280;54877;51.504;3.894;2023-05-20T00:10:37;102505.94;;;16.72;56.32
66398;BME280;54877;51.504;3.894;2023-05-20T00:13:03;102506.81;;;16.73;56.32
66398;BME280;54877;51.504;3.894;2023-05-20T00:15:28;102516.63;;;16.72;55.98
66398;BME280;54877;51.504;3.894;2023-05-20T00:17:54;102521.25;;;16.69;56.12
66398;BME280;54877;51.504;3.894;2023-05-20T00:20:20;102519.69;;;16.65;56.21
66398;BME280;54877;51.504;3.894;2023-05-20T00:22:45;102515.78;;;16.53;56.40
66398;BME280;54877;51.504;3.894;2023-05-20T00:25:10;102519.09;;;16.58;56.38
66398;BME280;54877;51.504;3.894;2023-05-20T00:27:38;102521.25;;;16.69;55.96
66398;BME280;54877;51.504;3.894;2023-05-20T00:30:04;102524.91;;;16.68;55.97
66398;BME280;54877;51.504;3.894;2023-05-20T00:32:30;102512.44;;;16.67;55.87
66398;BME280;54877;51.504;3.894;2023-05-20T00:34:56;102508.28;;;16.61;55.86
66398;BME280;54877;51.504;3.894;2023-05-20T00:37:22;102512.88;;;16.58;55.71
66398;BME280;54877;51.504;3.894;2023-05-20T00:39:48;102503.66;;;16.65;55.62
66398;BME280;54877;51.504;3.894;2023-05-20T00:42:20;102509.44;;;16.56;55.66
66398;BME280;54877;51.504;3.894;2023-05-20T00:44:46;102505.13;;;16.52;55.34
66398;BME280;54877;51.504;3.894;2023-05-20T00:47:12;102502.03;;;16.42;55.82
66398;BME280;54877;51.504;3.894;2023-05-20T00:49:38;102497.56;;;16.42;55.67
66398;BME280;54877;51.504;3.894;2023-05-20T00:52:04;102501.03;;;16.44;55.43
66398;BME280;54877;51.504;3.894;2023-05-20T00:54:30;102498.63;;;16.38;55.65
66398;BME280;54877;51.504;3.894;2023-05-20T00:56:56;102500.53;;;16.36;55.64
66398;BME280;54877;51.504;3.894;2023-05-20T00:59:23;102496.97;;;16.36;55.56
66398;BME280;54877;51.504;3.894;2023-05-20T01:01:50;102491.06;;;16.48;55.37
66398;BME280;54877;51.504;3.894;2023-05-20T01:04:15;102487.81;;;16.41;55.12
66398;BME280;54877;51.504;3.894;2023-05-20T01:06:41;102479.63;;;16.44;55.00
66398;BME280;54877;51.504;3.894;2023-05-20T01:09:07;102484.19;;;16.42;54.86
66398;BME280;54877;51.504;3.894;2023-05-20T01:11:36;102484.50;;;16.36;54.90
66398;BME280;54877;51.504;3.894;2023-05-20T01:14:08;102486.38;;;16.34;55.08
66398;BME280;54877;51.504;3.894;2023-05-20T01:16:37;102486.53;;;16.31;55.16
66398;BME280;54877;51.504;3.894;2023-05-20T01:19:03;102474.44;;;16.41;54.97
66398;BME280;54877;51.504;3.894;2023-05-20T01:21:45;102484.03;;;16.27;55.34
66398;BME280;54877;51.504;3.894;2023-05-20T01:24:12;102485.50;;;16.15;55.35
66398;BME280;54877;51.504;3.894;2023-05-20T01:26:37;102482.38;;;16.24;55.24
66398;BME280;54877;51.504;3.894;2023-05-20T01:29:02;102479.66;;;16.26;55.21
66398;BME280;54877;51.504;3.894;2023-05-20T01:31:29;102480.69;;;16.23;55.17
66398;BME280;54877;51.504;3.894;2023-05-20T01:33:57;102472.56;;;16.25;55.14
66398;BME280;54877;51.504;3.894;2023-05-20T01:36:24;102469.69;;;16.11;55.27
66398;BME280;54877;51.504;3.894;2023-05-20T01:38:51;102470.41;;;16.14;55.01
66398;BME280;54877;51.504;3.894;2023-05-20T01:41:18;102465.06;;;16.14;54.89
66398;BME280;54877;51.504;3.894;2023-05-20T01:43:44;102453.00;;;16.06;55.29
66398;BME280;54877;51.504;3.894;2023-05-20T01:46:10;102466.59;;;16.01;55.27
66398;BME280;54877;51.504;3.894;2023-05-20T01:48:35;102457.09;;;15.94;55.30
66398;BME280;54877;51.504;3.894;2023-05-20T01:51:02;102466.22;;;16.09;55.05
66398;BME280;54877;51.504;3.894;2023-05-20T01:53:27;102473.63;;;16.02;55.01
66398;BME280;54877;51.504;3.894;2023-05-20T01:55:53;102480.09;;;15.98;55.07
66398;BME280;54877;51.504;3.894;2023-05-20T01:58:18;102464.19;;;15.95;55.15
66398;BME280;54877;51.504;3.894;2023-05-20T02:00:43;102470.47;;;15.94;55.13
66398;BME280;54877;51.504;3.894;2023-05-20T02:03:09;102466.91;;;15.94;55.17
66398;BME280;54877;51.504;3.894;2023-05-20T02:05:35;102462.44;;;15.94;54.97
66398;BME280;54877;51.504;3.894;2023-05-20T02:08:00;102463.50;;;15.71;55.40
66398;BME280;54877;51.504;3.894;2023-05-20T02:10:25;102460.69;;;15.74;55.29
66398;BME280;54877;51.504;3.894;2023-05-20T02:12:51;102458.47;;;15.84;55.35
66398;BME280;54877;51.504;3.894;2023-05-20T02:15:16;102460.53;;;15.77;55.37
66398;BME280;54877;51.504;3.894;2023-05-20T02:17:41;102457.38;;;15.88;55.09
66398;BME280;54877;51.504;3.894;2023-05-20T02:20:07;102458.84;;;15.76;55.35
66398;BME280;54877;51.504;3.894;2023-05-20T02:22:33;102460.88;;;15.90;55.22
66398;BME280;54877;51.504;3.894;2023-05-20T02:24:58;102454.66;;;15.90;54.98
66398;BME280;54877;51.504;3.894;2023-05-20T02:27:23;102462.72;;;15.88;54.97
66398;BME280;54877;51.504;3.894;2023-05-20T02:29:49;102459.13;;;15.89;55.01
66398;BME280;54877;51.504;3.894;2023-05-20T02:32:14;102452.72;;;15.93;54.81
66398;BME280;54877;51.504;3.894;2023-05-20T02:34:40;102457.97;;;15.76;55.35
66398;BME280;54877;51.504;3.894;2023-05-20T02:37:05;102453.19;;;15.82;54.96
66398;BME280;54877;51.504;3.894;2023-05-20T02:39:31;102449.53;;;15.85;55.06
66398;BME280;54877;51.504;3.894;2023-05-20T02:41:56;102442.16;;;15.90;54.87
66398;BME280;54877;51.504;3.894;2023-05-20T02:44:22;102444.84;;;15.90;54.84
66398;BME280;54877;51.504;3.894;2023-05-20T02:46:47;102439.63;;;15.87;54.99
66398;BME280;54877;51.504;3.894;2023-05-20T02:49:12;102442.81;;;15.76;54.94
66398;BME280;54877;51.504;3.894;2023-05-20T02:51:39;102450.88;;;15.94;54.71
66398;BME280;54877;51.504;3.894;2023-05-20T02:54:04;102443.09;;;15.89;54.91
66398;BME280;54877;51.504;3.894;2023-05-20T02:56:30;102436.59;;;15.76;55.21
66398;BME280;54877;51.504;3.894;2023-05-20T02:58:56;102441.94;;;15.76;55.47
66398;BME280;54877;51.504;3.894;2023-05-20T03:01:21;102442.66;;;15.79;55.25
66398;BME280;54877;51.504;3.894;2023-05-20T03:03:47;102440.78;;;15.81;55.33
66398;BME280;54877;51.504;3.894;2023-05-20T03:06:12;102440.72;;;15.83;55.17
66398;BME280;54877;51.504;3.894;2023-05-20T03:08:38;102442.50;;;15.82;55.37
66398;BME280;54877;51.504;3.894;2023-05-20T03:11:03;102441.81;;;15.79;55.49
66398;BME280;54877;51.504;3.894;2023-05-20T03:13:29;102445.41;;;15.78;55.58
66398;BME280;54877;51.504;3.894;2023-05-20T03:15:54;102440.19;;;15.75;55.70
66398;BME280;54877;51.504;3.894;2023-05-20T03:18:20;102445.41;;;15.78;55.60
66398;BME280;54877;51.504;3.894;2023-05-20T03:20:45;102440.72;;;15.83;55.41
66398;BME280;54877;51.504;3.894;2023-05-20T03:23:11;102436.72;;;15.73;55.58
66398;BME280;54877;51.504;3.894;2023-05-20T03:25:36;102442.22;;;15.70;55.74
66398;BME280;54877;51.504;3.894;2023-05-20T03:28:03;102445.75;;;15.70;55.74
66398;BME280;54877;51.504;3.894;2023-05-20T03:30:29;102443.13;;;15.69;55.95
66398;BME280;54877;51.504;3.894;2023-05-20T03:32:55;102437.47;;;15.76;55.54
66398;BME280;54877;51.504;3.894;2023-05-20T03:35:24;102438.00;;;15.44;56.26
66398;BME280;54877;51.504;3.894;2023-05-20T03:37:49;102440.78;;;15.63;56.22
66398;BME280;54877;51.504;3.894;2023-05-20T03:40:18;102438.88;;;15.65;56.15
66398;BME280;54877;51.504;3.894;2023-05-20T03:42:47;102434.97;;;15.53;56.46
66398;BME280;54877;51.504;3.894;2023-05-20T03:45:13;102435.97;;;15.51;56.47
66398;BME280;54877;51.504;3.894;2023-05-20T03:47:39;102435.97;;;15.51;56.50
66398;BME280;54877;51.504;3.894;2023-05-20T03:50:05;102434.50;;;15.44;57.03
66398;BME280;54877;51.504;3.894;2023-05-20T03:52:30;102430.38;;;15.57;56.40
66398;BME280;54877;51.504;3.894;2023-05-20T03:54:56;102430.63;;;15.51;56.79
66398;BME280;54877;51.504;3.894;2023-05-20T03:57:21;102426.88;;;15.55;56.66
66398;BME280;54877;51.504;3.894;2023-05-20T03:59:47;102432.63;;;15.46;56.69
66398;BME280;54877;51.504;3.894;2023-05-20T04:02:12;102437.84;;;15.49;56.78
66398;BME280;54877;51.504;3.894;2023-05-20T04:04:37;102426.69;;;15.59;56.53
66398;BME280;54877;51.504;3.894;2023-05-20T04:07:03;102429.03;;;15.47;56.62
66398;BME280;54877;51.504;3.894;2023-05-20T04:09:31;102439.44;;;15.53;56.66
66398;BME280;54877;51.504;3.894;2023-05-20T04:11:57;102437.56;;;15.55;56.57
66398;BME280;54877;51.504;3.894;2023-05-20T04:14:22;102440.78;;;15.63;56.65
66398;BME280;54877;51.504;3.894;2023-05-20T04:16:47;102446.25;;;15.60;56.78
66398;BME280;54877;51.504;3.894;2023-05-20T04:19:14;102445.81;;;15.69;56.59
66398;BME280;54877;51.504;3.894;2023-05-20T04:21:41;102443.44;;;15.63;56.63
66398;BME280;54877;51.504;3.894;2023-05-20T04:24:06;102445.28;;;15.61;57.11
66398;BME280;54877;51.504;3.894;2023-05-20T04:26:32;102436.88;;;15.70;57.27
66398;BME280;54877;51.504;3.894;2023-05-20T04:28:57;102445.44;;;15.58;57.73
66398;BME280;54877;51.504;3.894;2023-05-20T04:31:25;102443.97;;;15.71;57.34
66398;BME280;54877;51.504;3.894;2023-05-20T04:33:53;102444.66;;;15.74;57.51
66398;BME280;54877;51.504;3.894;2023-05-20T04:36:19;102443.09;;;15.70;58.07
66398;BME280;54877;51.504;3.894;2023-05-20T04:38:44;102443.13;;;15.69;57.85
66398;BME280;54877;51.504;3.894;2023-05-20T04:41:11;102442.00;;;15.74;57.60
66398;BME280;54877;51.504;3.894;2023-05-20T04:43:36;102445.66;;;15.72;57.50
66398;BME280;54877;51.504;3.894;2023-05-20T04:46:03;102446.53;;;15.72;57.41
66398;BME280;54877;51.504;3.894;2023-05-20T04:48:30;102444.88;;;15.70;56.95
66398;BME280;54877;51.504;3.894;2023-05-20T04:50:56;102446.69;;;15.88;56.73
66398;BME280;54877;51.504;3.894;2023-05-20T04:53:21;102441.25;;;16.10;55.76
66398;BME280;54877;51.504;3.894;2023-05-20T04:55:47;102437.34;;;15.98;55.89
66398;BME280;54877;51.504;3.894;2023-05-20T04:58:13;102434.41;;;16.21;55.25
66398;BME280;54877;51.504;3.894;2023-05-20T05:00:43;102438.91;;;16.39;54.72
66398;BME280;54877;51.504;3.894;2023-05-20T05:03:09;102435.81;;;16.66;54.41
66398;BME280;54877;51.504;3.894;2023-05-20T05:05:36;102434.75;;;16.70;53.80
66398;BME280;54877;51.504;3.894;2023-05-20T05:08:03;102425.72;;;16.89;53.48
66398;BME280;54877;51.504;3.894;2023-05-20T05:10:29;102428.09;;;16.95;53.34
66398;BME280;54877;51.504;3.894;2023-05-20T05:12:54;102430.22;;;17.06;53.16
66398;BME280;54877;51.504;3.894;2023-05-20T05:15:20;102430.91;;;17.10;52.94
66398;BME280;54877;51.504;3.894;2023-05-20T05:17:46;102424.72;;;17.09;53.14
66398;BME280;54877;51.504;3.894;2023-05-20T05:20:11;102425.72;;;17.07;53.03
66398;BME280;54877;51.504;3.894;2023-05-20T05:22:36;102426.66;;;16.88;53.45
66398;BME280;54877;51.504;3.894;2023-05-20T05:25:03;102424.59;;;16.76;53.80
66398;BME280;54877;51.504;3.894;2023-05-20T05:27:29;102429.47;;;16.50;54.54
66398;BME280;54877;51.504;3.894;2023-05-20T05:29:55;102421.22;;;16.73;54.24
66398;BME280;54877;51.504;3.894;2023-05-20T05:32:20;102424.75;;;16.90;53.91
66398;BME280;54877;51.504;3.894;2023-05-20T05:34:45;102431.63;;;17.13;53.55
66398;BME280;54877;51.504;3.894;2023-05-20T05:37:10;102422.66;;;16.97;53.59
66398;BME280;54877;51.504;3.894;2023-05-20T05:39:36;102420.28;;;17.25;53.11
66398;BME280;54877;51.504;3.894;2023-05-20T05:42:02;102420.13;;;17.28;52.47
66398;BME280;54877;51.504;3.894;2023-05-20T05:44:28;102424.16;;;17.52;52.51
66398;BME280;54877;51.504;3.894;2023-05-20T05:46:53;102427.50;;;17.57;52.34
66398;BME280;54877;51.504;3.894;2023-05-20T05:49:18;102420.81;;;17.82;52.33
66398;BME280;54877;51.504;3.894;2023-05-20T05:51:44;102412.84;;;17.65;52.05
66398;BME280;54877;51.504;3.894;2023-05-20T05:54:09;102422.88;;;17.77;51.98
66398;BME280;54877;51.504;3.894;2023-05-20T05:56:34;102421.25;;;17.90;51.39
66398;BME280;54877;51.504;3.894;2023-05-20T05:59:00;102417.72;;;17.89;51.45
66398;BME280;54877;51.504;3.894;2023-05-20T06:01:25;102414.94;;;17.91;51.66
66398;BME280;54877;51.504;3.894;2023-05-20T06:03:51;102423.84;;;18.07;51.40
66398;BME280;54877;51.504;3.894;2023-05-20T06:06:16;102415.09;;;18.03;51.21
66398;BME280;54877;51.504;3.894;2023-05-20T06:08:41;102420.47;;;18.03;51.18
66398;BME280;54877;51.504;3.894;2023-05-20T06:11:07;102420.75;;;17.99;51.16
66398;BME280;54877;51.504;3.894;2023-05-20T06:13:32;102413.72;;;18.12;51.28
66398;BME280;54877;51.504;3.894;2023-05-20T06:15:57;102418.06;;;18.30;51.17
66398;BME280;54877;51.504;3.894;2023-05-20T06:18:23;102421.88;;;18.26;50.91
66398;BME280;54877;51.504;3.894;2023-05-20T06:20:55;102419.44;;;18.37;51.03
66398;BME280;54877;51.504;3.894;2023-05-20T06:23:21;102411.66;;;18.64;50.68
66398;BME280;54877;51.504;3.894;2023-05-20T06:25:46;102409.00;;;18.64;50.52
66398;BME280;54877;51.504;3.894;2023-05-20T06:28:12;102407.94;;;18.66;49.96
66398;BME280;54877;51.504;3.894;2023-05-20T06:30:38;102404.28;;;18.67;49.85
66398;BME280;54877;51.504;3.894;2023-05-20T06:33:03;102408.00;;;18.81;49.75
66398;BME280;54877;51.504;3.894;2023-05-20T06:35:28;102409.06;;;18.92;49.83
66398;BME280;54877;51.504;3.894;2023-05-20T06:37:54;102399.16;;;18.78;49.88
66398;BME280;54877;51.504;3.894;2023-05-20T06:40:19;102392.53;;;19.00;49.56
66398;BME280;54877;51.504;3.894;2023-05-20T06:42:44;102392.25;;;19.18;49.52
66398;BME280;54877;51.504;3.894;2023-05-20T06:45:10;102390.53;;;19.31;49.57
66398;BME280;54877;51.504;3.894;2023-05-20T06:47:36;102390.84;;;19.27;49.66
66398;BME280;54877;51.504;3.894;2023-05-20T06:50:01;102382.63;;;19.00;50.02
66398;BME280;54877;51.504;3.894;2023-05-20T06:52:27;102396.56;;;19.21;49.80
66398;BME280;54877;51.504;3.894;2023-05-20T06:54:52;102389.84;;;19.14;49.63
66398;BME280;54877;51.504;3.894;2023-05-20T06:57:17;102392.78;;;19.39;49.66
66398;BME280;54877;51.504;3.894;2023-05-20T06:59:43;102384.91;;;19.50;49.57
66398;BME280;54877;51.504;3.894;2023-05-20T07:02:08;102388.28;;;19.40;49.38
66398;BME280;54877;51.504;3.894;2023-05-20T07:04:33;102391.66;;;19.57;49.05
66398;BME280;54877;51.504;3.894;2023-05-20T07:06:59;102387.22;;;19.56;48.92
66398;BME280;54877;51.504;3.894;2023-05-20T07:09:24;102389.53;;;19.48;49.19
66398;BME280;54877;51.504;3.894;2023-05-20T07:11:49;102404.00;;;19.46;49.32
66398;BME280;54877;51.504;3.894;2023-05-20T07:14:15;102391.72;;;19.56;49.13
66398;BME280;54877;51.504;3.894;2023-05-20T07:16:40;102385.91;;;19.49;49.16
66398;BME280;54877;51.504;3.894;2023-05-20T07:19:05;102390.25;;;19.36;49.76
66398;BME280;54877;51.504;3.894;2023-05-20T07:21:30;102388.00;;;19.44;49.87
66398;BME280;54877;51.504;3.894;2023-05-20T07:23:56;102378.22;;;19.57;49.56
66398;BME280;54877;51.504;3.894;2023-05-20T07:26:21;102378.78;;;19.76;49.28
66398;BME280;54877;51.504;3.894;2023-05-20T07:28:46;102383.97;;;19.79;49.29
66398;BME280;54877;51.504;3.894;2023-05-20T07:31:12;102380.91;;;19.71;48.67
66398;BME280;54877;51.504;3.894;2023-05-20T07:33:38;102372.34;;;19.79;48.90
66398;BME280;54877;51.504;3.894;2023-05-20T07:36:03;102374.16;;;19.78;48.58
66398;BME280;54877;51.504;3.894;2023-05-20T07:38:29;102385.09;;;19.75;48.54
66398;BME280;54877;51.504;3.894;2023-05-20T07:40:54;102368.78;;;19.78;48.98
66398;BME280;54877;51.504;3.894;2023-05-20T07:43:19;102373.22;;;19.79;48.79
66398;BME280;54877;51.504;3.894;2023-05-20T07:45:45;102377.31;;;19.85;48.76
66398;BME280;54877;51.504;3.894;2023-05-20T07:48:10;102371.25;;;19.96;48.50
66398;BME280;54877;51.504;3.894;2023-05-20T07:50:36;102369.72;;;19.77;48.54
66398;BME280;54877;51.504;3.894;2023-05-20T07:53:03;102368.03;;;19.76;49.09
66398;BME280;54877;51.504;3.894;2023-05-20T07:55:29;102365.31;;;19.90;48.52
66398;BME280;54877;51.504;3.894;2023-05-20T07:57:55;102368.56;;;19.96;48.85
66398;BME280;54877;51.504;3.894;2023-05-20T08:00:20;102367.63;;;19.97;48.40
66398;BME280;54877;51.504;3.894;2023-05-20T08:02:46;102368.88;;;20.18;48.40
66398;BME280;54877;51.504;3.894;2023-05-20T08:05:11;102364.94;;;20.23;48.15
66398;BME280;54877;51.504;3.894;2023-05-20T08:07:37;102370.81;;;20.16;47.69
66398;BME280;54877;51.504;3.894;2023-05-20T08:10:02;102368.19;;;19.87;47.92
66398;BME280;54877;51.504;3.894;2023-05-20T08:12:27;102361.00;;;20.29;47.23
66398;BME280;54877;51.504;3.894;2023-05-20T08:14:53;102357.06;;;20.20;47.27
66398;BME280;54877;51.504;3.894;2023-05-20T08:17:18;102361.56;;;20.20;47.13
66398;BME280;54877;51.504;3.894;2023-05-20T08:19:43;102360.41;;;20.38;46.77
66398;BME280;54877;51.504;3.894;2023-05-20T08:22:09;102356.59;;;20.55;46.68
66398;BME280;54877;51.504;3.894;2023-05-20T08:24:34;102357.41;;;20.42;46.91
66398;BME280;54877;51.504;3.894;2023-05-20T08:27:00;102356.88;;;20.50;46.62
66398;BME280;54877;51.504;3.894;2023-05-20T08:29:25;102368.25;;;20.41;46.96
66398;BME280;54877;51.504;3.894;2023-05-20T08:31:50;102350.53;;;20.51;46.61
66398;BME280;54877;51.504;3.894;2023-05-20T08:34:16;102353.03;;;20.54;46.95
66398;BME280;54877;51.504;3.894;2023-05-20T08:36:41;102356.13;;;20.48;46.77
66398;BME280;54877;51.504;3.894;2023-05-20T08:39:09;102356.19;;;20.73;46.70
66398;BME280;54877;51.504;3.894;2023-05-20T08:41:34;102359.56;;;20.50;46.52
66398;BME280;54877;51.504;3.894;2023-05-20T08:44:02;102345.44;;;20.73;46.39
66398;BME280;54877;51.504;3.894;2023-05-20T08:46:28;102342.88;;;20.84;46.33
66398;BME280;54877;51.504;3.894;2023-05-20T08:48:55;102344.53;;;20.60;45.73
66398;BME280;54877;51.504;3.894;2023-05-20T08:51:20;102341.56;;;21.02;45.83
66398;BME280;54877;51.504;3.894;2023-05-20T08:53:50;102342.22;;;21.06;45.60
66398;BME280;54877;51.504;3.894;2023-05-20T08:56:16;102331.06;;;21.25;45.59
66398;BME280;54877;51.504;3.894;2023-05-20T08:58:41;102338.38;;;21.48;45.16
66398;BME280;54877;51.504;3.894;2023-05-20T09:01:07;102341.41;;;21.31;44.96
66398;BME280;54877;51.504;3.894;2023-05-20T09:03:32;102342.13;;;21.07;45.03
66398;BME280;54877;51.504;3.894;2023-05-20T09:06:05;102334.63;;;21.13;44.92
66398;BME280;54877;51.504;3.894;2023-05-20T09:08:31;102332.47;;;21.18;43.81
66398;BME280;54877;51.504;3.894;2023-05-20T09:10:57;102338.59;;;21.20;44.42
66398;BME280;54877;51.504;3.894;2023-05-20T09:13:23;102333.31;;;21.31;44.78
66398;BME280;54877;51.504;3.894;2023-05-20T09:15:48;102329.75;;;21.43;43.92
66398;BME280;54877;51.504;3.894;2023-05-20T09:18:14;102331.03;;;21.50;43.48
66398;BME280;54877;51.504;3.894;2023-05-20T09:20:39;102329.25;;;21.74;43.76
66398;BME280;54877;51.504;3.894;2023-05-20T09:23:06;102321.41;;;21.58;43.86
66398;BME280;54877;51.504;3.894;2023-05-20T09:25:33;102320.59;;;21.82;43.08
66398;BME280;54877;51.504;3.894;2023-05-20T09:27:59;102313.25;;;21.96;42.81
66398;BME280;54877;51.504;3.894;2023-05-20T09:30:25;102306.53;;;22.02;42.79
66398;BME280;54877;51.504;3.894;2023-05-20T09:35:20;102306.44;;;22.03;41.85
66398;BME280;54877;51.504;3.894;2023-05-20T09:37:47;102323.63;;;21.77;42.15
66398;BME280;54877;51.504;3.894;2023-05-20T09:40:13;102314.31;;;22.06;42.21
66398;BME280;54877;51.504;3.894;2023-05-20T09:45:18;102305.50;;;21.92;41.61
66398;BME280;54877;51.504;3.894;2023-05-20T09:47:44;102303.50;;;22.06;42.31
66398;BME280;54877;51.504;3.894;2023-05-20T09:50:10;102296.59;;;22.02;42.23
66398;BME280;54877;51.504;3.894;2023-05-20T09:52:37;102292.78;;;22.17;41.36
66398;BME280;54877;51.504;3.894;2023-05-20T09:55:04;102302.28;;;22.10;40.23
66398;BME280;54877;51.504;3.894;2023-05-20T09:57:33;102281.91;;;22.30;40.27
66398;BME280;54877;51.504;3.894;2023-05-20T10:00:00;102289.91;;;22.08;40.87
66398;BME280;54877;51.504;3.894;2023-05-20T10:02:26;102290.63;;;22.34;40.47
66398;BME280;54877;51.504;3.894;2023-05-20T10:04:51;102279.84;;;22.34;40.02
66398;BME280;54877;51.504;3.894;2023-05-20T10:15:56;102276.41;;;22.66;40.00
66398;BME280;54877;51.504;3.894;2023-05-20T10:18:50;102275.44;;;22.78;39.10
66398;BME280;54877;51.504;3.894;2023-05-20T10:21:37;102264.06;;;22.62;39.00
66398;BME280;54877;51.504;3.894;2023-05-20T10:24:06;102264.41;;;22.81;39.54
66398;BME280;54877;51.504;3.894;2023-05-20T10:26:39;102253.25;;;22.97;39.65
66398;BME280;54877;51.504;3.894;2023-05-20T10:29:15;102252.25;;;22.98;38.58
66398;BME280;54877;51.504;3.894;2023-05-20T10:31:44;102255.34;;;22.94;38.93
66398;BME280;54877;51.504;3.894;2023-05-20T10:34:13;102247.63;;;23.00;38.69
66398;BME280;54877;51.504;3.894;2023-05-20T10:36:43;102245.25;;;22.85;38.32
66398;BME280;54877;51.504;3.894;2023-05-20T10:39:13;102239.25;;;22.92;38.71
66398;BME280;54877;51.504;3.894;2023-05-20T10:41:42;102251.53;;;22.96;38.24
66398;BME280;54877;51.504;3.894;2023-05-20T10:44:08;102234.09;;;22.89;37.89
66398;BME280;54877;51.504;3.894;2023-05-20T10:46:33;102239.72;;;22.64;36.79
66398;BME280;54877;51.504;3.894;2023-05-20T10:49:02;102230.81;;;22.62;36.28
66398;BME280;54877;51.504;3.894;2023-05-20T10:51:29;102242.06;;;22.79;36.53
66398;BME280;54877;51.504;3.894;2023-05-20T10:53:56;102243.91;;;22.79;37.14
66398;BME280;54877;51.504;3.894;2023-05-20T10:56:22;102231.63;;;22.75;36.15
66398;BME280;54877;51.504;3.894;2023-05-20T10:58:49;102226.94;;;22.66;35.98
66398;BME280;54877;51.504;3.894;2023-05-20T11:01:16;102228.50;;;22.57;36.46
66398;BME280;54877;51.504;3.894;2023-05-20T11:03:43;102234.19;;;22.65;36.71
66398;BME280;54877;51.504;3.894;2023-05-20T11:06:13;102219.19;;;22.61;36.20
66398;BME280;54877;51.504;3.894;2023-05-20T11:08:40;102209.78;;;22.78;36.27
66398;BME280;54877;51.504;3.894;2023-05-20T11:11:05;102216.91;;;23.01;36.76
66398;BME280;54877;51.504;3.894;2023-05-20T11:13:31;102203.38;;;23.23;36.58
66398;BME280;54877;51.504;3.894;2023-05-20T11:15:56;102205.97;;;23.36;36.43
66398;BME280;54877;51.504;3.894;2023-05-20T11:18:23;102195.25;;;23.46;35.87
66398;BME280;54877;51.504;3.894;2023-05-20T11:20:54;102196.94;;;23.69;35.99
66398;BME280;54877;51.504;3.894;2023-05-20T11:23:19;102195.06;;;24.01;35.40
66398;BME280;54877;51.504;3.894;2023-05-20T11:25:48;102202.34;;;23.69;34.64
66398;BME280;54877;51.504;3.894;2023-05-20T11:28:14;102184.13;;;24.03;34.46
66398;BME280;54877;51.504;3.894;2023-05-20T11:30:43;102199.91;;;23.86;34.96
66398;BME280;54877;51.504;3.894;2023-05-20T11:33:12;102196.69;;;23.72;34.21
66398;BME280;54877;51.504;3.894;2023-05-20T11:35:50;102197.66;;;23.71;33.67
66398;BME280;54877;51.504;3.894;2023-05-20T11:38:16;102195.75;;;23.51;33.96
66398;BME280;54877;51.504;3.894;2023-05-20T11:40:52;102193.16;;;23.60;33.65
66398;BME280;54877;51.504;3.894;2023-05-20T11:43:19;102183.06;;;23.62;34.75
66398;BME280;54877;51.504;3.894;2023-05-20T11:45:45;102179.94;;;23.67;35.78
66398;BME280;54877;51.504;3.894;2023-05-20T11:48:17;102181.97;;;23.54;35.92
66398;BME280;54877;51.504;3.894;2023-05-20T11:50:44;102178.28;;;23.55;35.96
66398;BME280;54877;51.504;3.894;2023-05-20T11:53:14;102178.94;;;23.36;36.35
66398;BME280;54877;51.504;3.894;2023-05-20T11:55:48;102188.50;;;23.29;36.07
66398;BME280;54877;51.504;3.894;2023-05-20T11:58:18;102187.66;;;23.06;35.30
66398;BME280;54877;51.504;3.894;2023-05-20T12:00:45;102170.06;;;23.34;35.70
66398;BME280;54877;51.504;3.894;2023-05-20T12:03:11;102181.03;;;23.44;36.54
66398;BME280;54877;51.504;3.894;2023-05-20T12:05:36;102170.81;;;23.36;35.32
66398;BME280;54877;51.504;3.894;2023-05-20T12:08:02;102170.69;;;23.49;35.04
66398;BME280;54877;51.504;3.894;2023-05-20T12:10:28;102172.63;;;23.58;35.37
66398;BME280;54877;51.504;3.894;2023-05-20T12:12:54;102175.38;;;23.24;35.55
66398;BME280;54877;51.504;3.894;2023-05-20T12:15:19;102170.06;;;23.34;35.29
66398;BME280;54877;51.504;3.894;2023-05-20T12:17:51;102174.34;;;23.36;35.58
66398;BME280;54877;51.504;3.894;2023-05-20T12:20:20;102171.66;;;23.36;35.29
66398;BME280;54877;51.504;3.894;2023-05-20T12:22:47;102161.84;;;23.35;35.11
66398;BME280;54877;51.504;3.894;2023-05-20T12:25:13;102159.50;;;23.31;35.80
66398;BME280;54877;51.504;3.894;2023-05-20T12:27:40;102152.28;;;23.20;36.20
66398;BME280;54877;51.504;3.894;2023-05-20T12:30:07;102156.25;;;23.16;36.15
66398;BME280;54877;51.504;3.894;2023-05-20T12:32:34;102157.94;;;23.06;35.67
66398;BME280;54877;51.504;3.894;2023-05-20T12:35:02;102163.13;;;22.98;35.59
66398;BME280;54877;51.504;3.894;2023-05-20T12:37:28;102155.00;;;23.09;35.83
66398;BME280;54877;51.504;3.894;2023-05-20T12:39:54;102159.94;;;22.93;35.92
66398;BME280;54877;51.504;3.894;2023-05-20T12:42:19;102146.66;;;23.12;35.86
66398;BME280;54877;51.504;3.894;2023-05-20T12:44:45;102147.97;;;23.40;35.39
66398;BME280;54877;51.504;3.894;2023-05-20T12:47:10;102141.91;;;23.36;34.91
66398;BME280;54877;51.504;3.894;2023-05-20T12:49:35;102148.59;;;23.21;35.16
66398;BME280;54877;51.504;3.894;2023-05-20T12:52:01;102141.91;;;23.36;35.09
66398;BME280;54877;51.504;3.894;2023-05-20T12:54:26;102148.84;;;23.41;35.63
66398;BME280;54877;51.504;3.894;2023-05-20T12:56:53;102143.03;;;23.34;35.97
66398;BME280;54877;51.504;3.894;2023-05-20T12:59:18;102140.00;;;23.38;35.97